sensor_id;sensor_type;location;lat;lon;timestamp;pressure;altitude;pressure_sealevel;temperature;humidity
26859;BME280;14429;48.346;16.338;2024-03-08T00:00:18;100173.63;;;13.47;48.78
26859;BME280;14429;48.346;16.338;2024-03-08T00:02:43;100173.00;;;13.43;48.79
26859;BME280;14429;48.346;16.338;2024-03-08T00:05:09;100169.81;;;13.38;48.99
26859;BME280;14429;48.346;16.338;2024-03-08T00:07:35;100174.09;;;13.41;48.95
26859;BME280;14429;48.346;16.338;2024-03-08T00:10:02;100168.84;;;13.39;48.96
26859;BME280;14429;48.346;16.338;2024-03-08T00:12:28;100162.75;;;13.37;49.03
26859;BME280;14429;48.346;16.338;2024-03-08T00:14:53;100171.72;;;13.36;49.03
26859;BME280;14429;48.346;16.338;2024-03-08T00:17:18;100153.97;;;13.35;49.05
26859;BME280;14429;48.346;16.338;2024-03-08T00:19:44;100162.00;;;13.35;49.01
26859;BME280;14429;48.346;16.338;2024-03-08T00:22:09;100169.50;;;13.30;49.18
26859;BME280;14429;48.346;16.338;2024-03-08T00:24:35;100158.91;;;13.29;49.12
26859;BME280;14429;48.346;16.338;2024-03-08T00:27:01;100167.69;;;13.31;48.93
26859;BME280;14429;48.346;16.338;2024-03-08T00:29:27;100159.53;;;13.32;49.07
26859;BME280;14429;48.346;16.338;2024-03-08T00:31:52;100161.47;;;13.30;49.15
26859;BME280;14429;48.346;16.338;2024-03-08T00:34:18;100165.88;;;13.31;49.22
26859;BME280;14429;48.346;16.338;2024-03-08T00:36:43;100171.34;;;13.30;49.07
26859;BME280;14429;48.346;16.338;2024-03-08T00:39:08;100166.84;;;13.30;49.07
26859;BME280;14429;48.346;16.338;2024-03-08T00:41:34;100166.00;;;13.30;49.14
26859;BME280;14429;48.346;16.338;2024-03-08T00:44:01;100163.31;;;13.30;49.06
26859;BME280;14429;48.346;16.338;2024-03-08T00:46:26;100166.94;;;13.29;49.04
26859;BME280;14429;48.346;16.338;2024-03-08T00:48:51;100165.41;;;12.77;46.83
26859;BME280;14429;48.346;16.338;2024-03-08T00:51:17;100167.47;;;13.21;49.20
26859;BME280;14429;48.346;16.338;2024-03-08T00:53:42;100154.97;;;13.22;49.13
26859;BME280;14429;48.346;16.338;2024-03-08T00:56:08;100158.50;;;13.22;49.06
26859;BME280;14429;48.346;16.338;2024-03-08T00:58:34;100168.38;;;13.22;49.19
26859;BME280;14429;48.346;16.338;2024-03-08T01:01:01;100153.16;;;13.22;49.20
26859;BME280;14429;48.346;16.338;2024-03-08T01:03:26;100155.91;;;13.21;49.25
26859;BME280;14429;48.346;16.338;2024-03-08T01:05:51;100148.84;;;13.20;49.18
26859;BME280;14429;48.346;16.338;2024-03-08T01:08:17;100149.72;;;13.20;49.07
26859;BME280;14429;48.346;16.338;2024-03-08T01:10:42;100145.22;;;13.21;49.14
26859;BME280;14429;48.346;16.338;2024-03-08T01:13:08;100144.34;;;13.20;49.15
26859;BME280;14429;48.346;16.338;2024-03-08T01:15:33;100150.69;;;13.20;49.19
26859;BME280;14429;48.346;16.338;2024-03-08T01:18:00;100139.47;;;13.15;49.27
26859;BME280;14429;48.346;16.338;2024-03-08T01:20:25;100141.16;;;13.16;49.27
26859;BME280;14429;48.346;16.338;2024-03-08T01:22:51;100140.31;;;13.15;49.33
26859;BME280;14429;48.346;16.338;2024-03-08T01:25:16;100133.00;;;13.17;49.25
26859;BME280;14429;48.346;16.338;2024-03-08T01:27:41;100138.34;;;13.17;49.29
26859;BME280;14429;48.346;16.338;2024-03-08T01:30:07;100135.81;;;13.16;49.16
26859;BME280;14429;48.346;16.338;2024-03-08T01:32:33;100139.88;;;13.09;49.34
26859;BME280;14429;48.346;16.338;2024-03-08T01:35:00;100137.97;;;13.11;49.23
26859;BME280;14429;48.346;16.338;2024-03-08T01:37:25;100130.88;;;13.10;49.24
26859;BME280;14429;48.346;16.338;2024-03-08T01:39:51;100129.38;;;13.06;49.39
26859;BME280;14429;48.346;16.338;2024-03-08T01:42:16;100130.16;;;13.08;49.48
26859;BME280;14429;48.346;16.338;2024-03-08T01:44:41;100125.97;;;13.04;49.44
26859;BME280;14429;48.346;16.338;2024-03-08T01:47:07;100124.03;;;13.06;49.54
26859;BME280;14429;48.346;16.338;2024-03-08T01:49:32;100122.13;;;13.08;49.48
26859;BME280;14429;48.346;16.338;2024-03-08T01:52:00;100126.63;;;13.07;49.41
26859;BME280;14429;48.346;16.338;2024-03-08T01:54:26;100118.47;;;13.09;49.35
26859;BME280;14429;48.346;16.338;2024-03-08T01:56:52;100115.66;;;13.10;49.37
26859;BME280;14429;48.346;16.338;2024-03-08T01:59:17;100123.81;;;13.09;49.28
26859;BME280;14429;48.346;16.338;2024-03-08T02:01:43;100116.84;;;13.06;49.47
26859;BME280;14429;48.346;16.338;2024-03-08T02:04:08;100118.25;;;13.12;49.32
26859;BME280;14429;48.346;16.338;2024-03-08T02:06:34;100122.13;;;13.08;49.37
26859;BME280;14429;48.346;16.338;2024-03-08T02:09:02;100112.94;;;12.63;49.72
26859;BME280;14429;48.346;16.338;2024-03-08T02:11:27;100115.06;;;12.94;49.74
26859;BME280;14429;48.346;16.338;2024-03-08T02:13:52;100106.47;;;13.02;49.63
26859;BME280;14429;48.346;16.338;2024-03-08T02:16:20;100122.75;;;12.99;49.28
26859;BME280;14429;48.346;16.338;2024-03-08T02:18:46;100121.84;;;12.75;50.08
26859;BME280;14429;48.346;16.338;2024-03-08T02:21:13;100114.22;;;12.94;49.80
26859;BME280;14429;48.346;16.338;2024-03-08T02:23:41;100113.91;;;12.86;49.63
26859;BME280;14429;48.346;16.338;2024-03-08T02:26:06;100126.41;;;12.98;49.60
26859;BME280;14429;48.346;16.338;2024-03-08T02:28:32;100123.44;;;12.90;49.75
26859;BME280;14429;48.346;16.338;2024-03-08T02:30:58;100107.78;;;12.96;49.71
26859;BME280;14429;48.346;16.338;2024-03-08T02:33:24;100114.44;;;12.66;49.60
26859;BME280;14429;48.346;16.338;2024-03-08T02:35:50;100106.31;;;12.80;49.81
26859;BME280;14429;48.346;16.338;2024-03-08T02:38:18;100117.00;;;12.93;49.77
26859;BME280;14429;48.346;16.338;2024-03-08T02:40:44;100114.84;;;12.97;49.66
26859;BME280;14429;48.346;16.338;2024-03-08T02:43:09;100111.13;;;13.00;49.54
26859;BME280;14429;48.346;16.338;2024-03-08T02:45:35;100113.16;;;12.96;49.61
26859;BME280;14429;48.346;16.338;2024-03-08T02:48:00;100111.31;;;12.97;49.64
26859;BME280;14429;48.346;16.338;2024-03-08T02:50:26;100114.00;;;12.97;49.62
26859;BME280;14429;48.346;16.338;2024-03-08T02:52:51;100102.31;;;12.98;49.57
26859;BME280;14429;48.346;16.338;2024-03-08T02:55:18;100112.06;;;12.99;49.66
26859;BME280;14429;48.346;16.338;2024-03-08T02:57:43;100105.22;;;12.95;49.68
26859;BME280;14429;48.346;16.338;2024-03-08T03:00:09;100109.63;;;12.96;49.69
26859;BME280;14429;48.346;16.338;2024-03-08T03:02:35;100108.84;;;12.94;49.69
26859;BME280;14429;48.346;16.338;2024-03-08T03:05:01;100111.75;;;12.91;49.55
26859;BME280;14429;48.346;16.338;2024-03-08T03:07:26;100108.00;;;12.93;49.69
26859;BME280;14429;48.346;16.338;2024-03-08T03:09:51;100104.34;;;12.94;49.62
26859;BME280;14429;48.346;16.338;2024-03-08T03:12:18;100109.91;;;12.92;49.78
26859;BME280;14429;48.346;16.338;2024-03-08T03:14:44;100107.38;;;12.90;49.81
26859;BME280;14429;48.346;16.338;2024-03-08T03:17:09;100111.88;;;12.90;49.67
26859;BME280;14429;48.346;16.338;2024-03-08T03:19:34;100107.38;;;12.90;49.80
26859;BME280;14429;48.346;16.338;2024-03-08T03:22:01;100108.34;;;12.89;49.73
26859;BME280;14429;48.346;16.338;2024-03-08T03:24:27;100104.91;;;12.87;49.85
26859;BME280;14429;48.346;16.338;2024-03-08T03:26:52;100099.34;;;12.90;49.69
26859;BME280;14429;48.346;16.338;2024-03-08T03:29:19;100097.50;;;12.91;49.66
26859;BME280;14429;48.346;16.338;2024-03-08T03:31:44;100094.19;;;12.87;49.71
26859;BME280;14429;48.346;16.338;2024-03-08T03:34:10;100093.22;;;12.88;49.76
26859;BME280;14429;48.346;16.338;2024-03-08T03:36:35;100099.34;;;12.90;49.72
26859;BME280;14429;48.346;16.338;2024-03-08T03:39:01;100094.97;;;12.89;49.76
26859;BME280;14429;48.346;16.338;2024-03-08T03:41:26;100087.88;;;12.88;49.64
26859;BME280;14429;48.346;16.338;2024-03-08T03:43:51;100092.63;;;12.85;49.85
26859;BME280;14429;48.346;16.338;2024-03-08T03:46:18;100091.75;;;12.84;49.86
26859;BME280;14429;48.346;16.338;2024-03-08T03:48:44;100097.09;;;12.84;49.88
26859;BME280;14429;48.346;16.338;2024-03-08T03:51:09;100100.53;;;12.86;49.78
26859;BME280;14429;48.346;16.338;2024-03-08T03:53:35;100095.38;;;12.83;49.85
26859;BME280;14429;48.346;16.338;2024-03-08T03:56:00;100103.41;;;12.83;49.86
26859;BME280;14429;48.346;16.338;2024-03-08T03:58:25;100099.03;;;12.82;49.88
26859;BME280;14429;48.346;16.338;2024-03-08T04:00:51;100097.53;;;12.78;49.95
26859;BME280;14429;48.346;16.338;2024-03-08T04:03:18;100100.94;;;12.80;49.91
26859;BME280;14429;48.346;16.338;2024-03-08T04:05:43;100098.28;;;12.80;49.76
26859;BME280;14429;48.346;16.338;2024-03-08T04:08:08;100097.53;;;12.78;50.07
26859;BME280;14429;48.346;16.338;2024-03-08T04:10:34;100093.91;;;12.79;49.91
26859;BME280;14429;48.346;16.338;2024-03-08T04:12:59;100094.66;;;12.81;49.80
26859;BME280;14429;48.346;16.338;2024-03-08T04:15:25;100098.81;;;12.85;49.67
26859;BME280;14429;48.346;16.338;2024-03-08T04:17:50;100097.41;;;12.80;49.86
26859;BME280;14429;48.346;16.338;2024-03-08T04:20:17;100087.81;;;12.77;49.98
26859;BME280;14429;48.346;16.338;2024-03-08T04:22:42;100099.25;;;12.79;49.93
26859;BME280;14429;48.346;16.338;2024-03-08T04:25:08;100096.69;;;12.78;49.90
26859;BME280;14429;48.346;16.338;2024-03-08T04:27:34;100090.50;;;12.77;50.01
26859;BME280;14429;48.346;16.338;2024-03-08T04:29:59;100093.03;;;12.79;49.89
26859;BME280;14429;48.346;16.338;2024-03-08T04:32:25;100089.72;;;12.75;49.86
26859;BME280;14429;48.346;16.338;2024-03-08T04:34:50;100090.69;;;12.74;50.02
26859;BME280;14429;48.346;16.338;2024-03-08T04:37:17;100088.13;;;12.73;50.04
26859;BME280;14429;48.346;16.338;2024-03-08T04:39:42;100081.91;;;12.72;49.96
26859;BME280;14429;48.346;16.338;2024-03-08T04:42:08;100078.69;;;12.67;50.11
26859;BME280;14429;48.346;16.338;2024-03-08T04:44:34;100078.47;;;12.70;50.01
26859;BME280;14429;48.346;16.338;2024-03-08T04:46:59;100080.94;;;12.73;50.04
26859;BME280;14429;48.346;16.338;2024-03-08T04:49:25;100088.97;;;12.73;49.89
26859;BME280;14429;48.346;16.338;2024-03-08T04:51:50;100089.63;;;12.52;50.28
26859;BME280;14429;48.346;16.338;2024-03-08T04:54:17;100087.97;;;12.62;50.23
26859;BME280;14429;48.346;16.338;2024-03-08T04:56:42;100094.75;;;12.67;50.06
26859;BME280;14429;48.346;16.338;2024-03-08T04:59:08;100092.69;;;12.71;50.00
26859;BME280;14429;48.346;16.338;2024-03-08T05:01:33;100094.41;;;12.72;50.05
26859;BME280;14429;48.346;16.338;2024-03-08T05:03:59;100084.59;;;12.72;49.79
26859;BME280;14429;48.346;16.338;2024-03-08T05:06:24;100090.88;;;12.71;49.96
26859;BME280;14429;48.346;16.338;2024-03-08T05:08:49;100098.91;;;12.71;49.92
26859;BME280;14429;48.346;16.338;2024-03-08T05:11:16;100090.88;;;12.71;50.03
26859;BME280;14429;48.346;16.338;2024-03-08T05:13:42;100085.97;;;12.41;47.51
26859;BME280;14429;48.346;16.338;2024-03-08T05:16:07;100091.53;;;12.38;50.79
26859;BME280;14429;48.346;16.338;2024-03-08T05:18:33;100086.97;;;12.40;50.78
26859;BME280;14429;48.346;16.338;2024-03-08T05:20:58;100089.81;;;12.25;51.01
26859;BME280;14429;48.346;16.338;2024-03-08T05:23:24;100086.41;;;12.35;50.72
26859;BME280;14429;48.346;16.338;2024-03-08T05:25:49;100088.75;;;12.52;50.52
26859;BME280;14429;48.346;16.338;2024-03-08T05:28:16;100087.38;;;12.59;50.42
26859;BME280;14429;48.346;16.338;2024-03-08T05:30:41;100088.09;;;12.61;50.19
26859;BME280;14429;48.346;16.338;2024-03-08T05:33:07;100092.41;;;12.63;50.19
26859;BME280;14429;48.346;16.338;2024-03-08T05:35:32;100097.75;;;12.63;50.29
26859;BME280;14429;48.346;16.338;2024-03-08T05:37:57;100089.59;;;12.65;50.18
26859;BME280;14429;48.346;16.338;2024-03-08T05:40:23;100084.25;;;12.65;50.13
26859;BME280;14429;48.346;16.338;2024-03-08T05:42:48;100093.13;;;12.65;50.09
26859;BME280;14429;48.346;16.338;2024-03-08T05:45:15;100091.28;;;12.65;50.11
26859;BME280;14429;48.346;16.338;2024-03-08T05:47:41;100087.97;;;12.62;50.14
26859;BME280;14429;48.346;16.338;2024-03-08T05:50:07;100099.66;;;12.61;50.27
26859;BME280;14429;48.346;16.338;2024-03-08T05:52:32;100093.25;;;12.64;50.10
26859;BME280;14429;48.346;16.338;2024-03-08T05:54:58;100095.16;;;12.62;50.17
26859;BME280;14429;48.346;16.338;2024-03-08T05:57:23;100089.81;;;12.62;50.10
26859;BME280;14429;48.346;16.338;2024-03-08T05:59:49;100100.28;;;12.65;50.19
26859;BME280;14429;48.346;16.338;2024-03-08T06:02:15;100100.28;;;12.65;50.11
26859;BME280;14429;48.346;16.338;2024-03-08T06:04:41;100103.81;;;12.65;50.10
26859;BME280;14429;48.346;16.338;2024-03-08T06:07:06;100103.94;;;12.64;50.04
26859;BME280;14429;48.346;16.338;2024-03-08T06:09:31;100094.22;;;12.63;50.08
26859;BME280;14429;48.346;16.338;2024-03-08T06:11:57;100106.63;;;12.64;50.08
26859;BME280;14429;48.346;16.338;2024-03-08T06:14:22;100099.78;;;12.60;50.17
26859;BME280;14429;48.346;16.338;2024-03-08T06:16:48;100104.16;;;12.61;50.13
26859;BME280;14429;48.346;16.338;2024-03-08T06:19:14;100100.66;;;12.48;49.67
26859;BME280;14429;48.346;16.338;2024-03-08T06:21:40;100106.06;;;12.46;50.50
26859;BME280;14429;48.346;16.338;2024-03-08T06:24:05;100101.16;;;12.53;50.35
26859;BME280;14429;48.346;16.338;2024-03-08T06:26:31;100103.72;;;12.54;50.38
26859;BME280;14429;48.346;16.338;2024-03-08T06:28:56;100107.25;;;12.55;50.36
26859;BME280;14429;48.346;16.338;2024-03-08T06:31:22;100114.41;;;12.17;50.22
26859;BME280;14429;48.346;16.338;2024-03-08T06:33:48;100109.28;;;12.39;50.40
26859;BME280;14429;48.346;16.338;2024-03-08T06:36:15;100107.06;;;12.45;50.53
26859;BME280;14429;48.346;16.338;2024-03-08T06:38:41;100115.94;;;12.46;50.42
26859;BME280;14429;48.346;16.338;2024-03-08T06:41:06;100105.03;;;12.49;50.43
26859;BME280;14429;48.346;16.338;2024-03-08T06:43:32;100107.38;;;12.53;50.41
26859;BME280;14429;48.346;16.338;2024-03-08T06:45:57;100105.47;;;12.55;50.28
26859;BME280;14429;48.346;16.338;2024-03-08T06:48:22;100112.06;;;12.50;50.35
26859;BME280;14429;48.346;16.338;2024-03-08T06:50:48;100107.56;;;12.50;50.34
26859;BME280;14429;48.346;16.338;2024-03-08T06:53:15;100105.22;;;12.46;50.59
26859;BME280;14429;48.346;16.338;2024-03-08T06:55:40;100114.53;;;12.53;50.32
26859;BME280;14429;48.346;16.338;2024-03-08T06:58:06;100110.78;;;12.43;50.43
26859;BME280;14429;48.346;16.338;2024-03-08T07:00:31;100112.06;;;12.50;50.42
26859;BME280;14429;48.346;16.338;2024-03-08T07:02:57;100110.91;;;12.54;50.35
26859;BME280;14429;48.346;16.338;2024-03-08T07:05:22;100115.78;;;11.46;48.91
26859;BME280;14429;48.346;16.338;2024-03-08T07:07:47;100113.31;;;12.08;51.01
26859;BME280;14429;48.346;16.338;2024-03-08T07:10:14;100113.66;;;12.03;51.40
26859;BME280;14429;48.346;16.338;2024-03-08T07:12:40;100106.22;;;11.82;51.88
26859;BME280;14429;48.346;16.338;2024-03-08T07:15:06;100114.09;;;10.64;52.57
26859;BME280;14429;48.346;16.338;2024-03-08T07:17:31;100118.47;;;10.79;51.39
26859;BME280;14429;48.346;16.338;2024-03-08T07:19:57;100111.41;;;11.71;52.67
26859;BME280;14429;48.346;16.338;2024-03-08T07:22:22;100112.75;;;12.03;51.85
26859;BME280;14429;48.346;16.338;2024-03-08T07:24:47;100100.09;;;12.18;51.40
26859;BME280;14429;48.346;16.338;2024-03-08T07:27:14;100098.72;;;12.25;51.17
26859;BME280;14429;48.346;16.338;2024-03-08T07:29:40;100108.75;;;11.71;50.27
26859;BME280;14429;48.346;16.338;2024-03-08T07:32:05;100097.56;;;11.53;51.79
26859;BME280;14429;48.346;16.338;2024-03-08T07:34:30;100103.56;;;11.56;52.13
26859;BME280;14429;48.346;16.338;2024-03-08T07:36:56;100099.72;;;11.98;51.82
26859;BME280;14429;48.346;16.338;2024-03-08T07:39:21;100112.44;;;11.95;51.91
26859;BME280;14429;48.346;16.338;2024-03-08T07:41:47;100108.06;;;11.94;51.95
26859;BME280;14429;48.346;16.338;2024-03-08T07:44:13;100111.81;;;12.04;51.37
26859;BME280;14429;48.346;16.338;2024-03-08T07:46:39;100105.50;;;11.92;51.71
26859;BME280;14429;48.346;16.338;2024-03-08T07:49:04;100102.19;;;12.01;51.91
26859;BME280;14429;48.346;16.338;2024-03-08T07:51:30;100097.28;;;12.20;51.30
26859;BME280;14429;48.346;16.338;2024-03-08T07:53:55;100096.66;;;12.29;51.08
26859;BME280;14429;48.346;16.338;2024-03-08T07:56:20;100108.44;;;12.26;51.08
26859;BME280;14429;48.346;16.338;2024-03-08T07:58:46;100110.63;;;11.17;51.53
26859;BME280;14429;48.346;16.338;2024-03-08T08:01:17;100107.69;;;11.74;52.67
26859;BME280;14429;48.346;16.338;2024-03-08T08:03:42;100103.34;;;11.33;51.78
26859;BME280;14429;48.346;16.338;2024-03-08T08:06:07;100112.34;;;11.18;53.93
26859;BME280;14429;48.346;16.338;2024-03-08T08:08:33;100108.78;;;10.78;54.09
26859;BME280;14429;48.346;16.338;2024-03-08T08:10:58;100110.03;;;10.59;54.97
26859;BME280;14429;48.346;16.338;2024-03-08T08:13:24;100123.44;;;10.30;55.03
26859;BME280;14429;48.346;16.338;2024-03-08T08:15:49;100112.88;;;10.42;54.56
26859;BME280;14429;48.346;16.338;2024-03-08T08:18:16;100111.81;;;10.45;55.13
26859;BME280;14429;48.346;16.338;2024-03-08T08:20:41;100118.38;;;10.94;55.15
26859;BME280;14429;48.346;16.338;2024-03-08T08:23:07;100113.69;;;11.11;54.05
26859;BME280;14429;48.346;16.338;2024-03-08T08:25:32;100107.44;;;11.64;53.14
26859;BME280;14429;48.346;16.338;2024-03-08T08:27:58;100105.63;;;11.39;53.94
26859;BME280;14429;48.346;16.338;2024-03-08T08:30:23;100101.59;;;11.46;52.98
26859;BME280;14429;48.346;16.338;2024-03-08T08:32:48;100106.00;;;11.33;53.89
26859;BME280;14429;48.346;16.338;2024-03-08T08:35:15;100107.19;;;11.15;53.08
26859;BME280;14429;48.346;16.338;2024-03-08T08:37:41;100102.22;;;11.75;52.91
26859;BME280;14429;48.346;16.338;2024-03-08T08:40:07;100103.59;;;11.68;52.42
26859;BME280;14429;48.346;16.338;2024-03-08T08:42:32;100122.31;;;10.61;54.21
26859;BME280;14429;48.346;16.338;2024-03-08T08:44:58;100118.28;;;10.82;54.78
26859;BME280;14429;48.346;16.338;2024-03-08T08:47:23;100114.09;;;10.64;54.75
26859;BME280;14429;48.346;16.338;2024-03-08T08:49:49;100114.22;;;11.16;54.50
26859;BME280;14429;48.346;16.338;2024-03-08T08:52:15;100109.63;;;10.92;52.91
26859;BME280;14429;48.346;16.338;2024-03-08T08:54:41;100105.78;;;11.50;53.57
26859;BME280;14429;48.346;16.338;2024-03-08T08:57:06;100110.22;;;11.23;52.21
26859;BME280;14429;48.346;16.338;2024-03-08T08:59:32;100101.50;;;11.73;52.90
26859;BME280;14429;48.346;16.338;2024-03-08T09:01:57;100109.06;;;11.27;53.50
26859;BME280;14429;48.346;16.338;2024-03-08T09:04:22;100104.75;;;11.38;53.03
26859;BME280;14429;48.346;16.338;2024-03-08T09:06:48;100102.78;;;11.80;52.35
26859;BME280;14429;48.346;16.338;2024-03-08T09:09:15;100103.72;;;11.67;52.81
26859;BME280;14429;48.346;16.338;2024-03-08T09:11:40;100101.69;;;11.70;52.51
26859;BME280;14429;48.346;16.338;2024-03-08T09:14:06;100117.88;;;11.55;53.06
26859;BME280;14429;48.346;16.338;2024-03-08T09:16:32;100107.13;;;11.43;52.97
26859;BME280;14429;48.346;16.338;2024-03-08T09:18:57;100102.19;;;11.89;52.42
26859;BME280;14429;48.346;16.338;2024-03-08T09:21:23;100106.34;;;11.81;52.44
26859;BME280;14429;48.346;16.338;2024-03-08T09:23:48;100110.84;;;10.87;54.34
26859;BME280;14429;48.346;16.338;2024-03-08T09:26:15;100105.47;;;11.14;54.00
26859;BME280;14429;48.346;16.338;2024-03-08T09:28:40;100103.06;;;11.24;52.61
26859;BME280;14429;48.346;16.338;2024-03-08T09:31:05;100096.72;;;11.52;53.38
26859;BME280;14429;48.346;16.338;2024-03-08T09:33:31;100111.22;;;11.48;53.09
26859;BME280;14429;48.346;16.338;2024-03-08T09:35:56;100095.72;;;11.27;54.00
26859;BME280;14429;48.346;16.338;2024-03-08T09:38:22;100103.44;;;10.92;55.04
26859;BME280;14429;48.346;16.338;2024-03-08T09:40:47;100112.59;;;10.33;56.91
26859;BME280;14429;48.346;16.338;2024-03-08T09:43:14;100103.44;;;10.37;55.53
26859;BME280;14429;48.346;16.338;2024-03-08T09:45:40;100107.81;;;10.79;55.84
26859;BME280;14429;48.346;16.338;2024-03-08T09:48:07;100100.53;;;11.08;54.75
26859;BME280;14429;48.346;16.338;2024-03-08T09:50:35;100103.81;;;10.31;57.16
26859;BME280;14429;48.346;16.338;2024-03-08T09:53:00;100097.88;;;10.95;54.71
26859;BME280;14429;48.346;16.338;2024-03-08T09:55:26;100096.69;;;10.73;56.15
26859;BME280;14429;48.346;16.338;2024-03-08T09:57:53;100091.78;;;11.06;54.42
26859;BME280;14429;48.346;16.338;2024-03-08T10:00:21;100091.03;;;10.91;55.67
26859;BME280;14429;48.346;16.338;2024-03-08T10:02:46;100093.00;;;10.61;56.14
26859;BME280;14429;48.346;16.338;2024-03-08T10:05:12;100090.00;;;11.33;54.27
26859;BME280;14429;48.346;16.338;2024-03-08T10:07:38;100085.84;;;11.15;54.20
26859;BME280;14429;48.346;16.338;2024-03-08T10:10:04;100095.19;;;10.69;55.98
26859;BME280;14429;48.346;16.338;2024-03-08T10:12:30;100082.66;;;10.97;55.35
26859;BME280;14429;48.346;16.338;2024-03-08T10:14:55;100084.06;;;11.42;54.05
26859;BME280;14429;48.346;16.338;2024-03-08T10:17:23;100085.47;;;11.21;54.25
26859;BME280;14429;48.346;16.338;2024-03-08T10:19:51;100090.47;;;11.00;53.63
26859;BME280;14429;48.346;16.338;2024-03-08T10:22:17;100074.31;;;11.55;53.67
26859;BME280;14429;48.346;16.338;2024-03-08T10:24:46;100077.72;;;11.57;53.59
26859;BME280;14429;48.346;16.338;2024-03-08T10:27:11;100078.97;;;11.25;54.39
26859;BME280;14429;48.346;16.338;2024-03-08T10:29:37;100073.91;;;10.81;56.05
26859;BME280;14429;48.346;16.338;2024-03-08T10:32:02;100077.38;;;11.35;54.05
26859;BME280;14429;48.346;16.338;2024-03-08T10:34:29;100075.44;;;10.85;55.69
26859;BME280;14429;48.346;16.338;2024-03-08T10:36:59;100078.59;;;10.77;55.22
26859;BME280;14429;48.346;16.338;2024-03-08T10:39:31;100081.53;;;10.46;56.91
26859;BME280;14429;48.346;16.338;2024-03-08T10:42:02;100082.31;;;10.61;56.33
26859;BME280;14429;48.346;16.338;2024-03-08T10:44:40;100075.56;;;11.09;55.24
26859;BME280;14429;48.346;16.338;2024-03-08T10:47:17;100084.50;;;11.22;54.07
26859;BME280;14429;48.346;16.338;2024-03-08T10:49:51;100081.63;;;10.30;57.43
26859;BME280;14429;48.346;16.338;2024-03-08T10:52:16;100085.38;;;10.55;56.67
26859;BME280;14429;48.346;16.338;2024-03-08T10:54:44;100085.44;;;10.26;58.10
26859;BME280;14429;48.346;16.338;2024-03-08T10:57:12;100074.50;;;10.31;57.82
26859;BME280;14429;48.346;16.338;2024-03-08T10:59:38;100074.69;;;10.42;57.23
26859;BME280;14429;48.346;16.338;2024-03-08T11:02:04;100065.56;;;10.73;56.09
26859;BME280;14429;48.346;16.338;2024-03-08T11:04:31;100072.03;;;10.69;55.67
26859;BME280;14429;48.346;16.338;2024-03-08T11:07:02;100062.09;;;10.71;56.19
26859;BME280;14429;48.346;16.338;2024-03-08T11:09:28;100063.44;;;10.78;55.86
26859;BME280;14429;48.346;16.338;2024-03-08T11:12:18;100059.44;;;10.71;55.81
26859;BME280;14429;48.346;16.338;2024-03-08T11:14:45;100061.00;;;10.34;57.52
26859;BME280;14429;48.346;16.338;2024-03-08T11:17:10;100060.03;;;10.07;58.52
26859;BME280;14429;48.346;16.338;2024-03-08T11:19:36;100058.47;;;9.90;58.44
26859;BME280;14429;48.346;16.338;2024-03-08T11:22:03;100056.88;;;10.56;56.98
26859;BME280;14429;48.346;16.338;2024-03-08T11:24:36;100055.63;;;9.93;58.64
26859;BME280;14429;48.346;16.338;2024-03-08T11:27:03;100058.31;;;10.20;57.89
26859;BME280;14429;48.346;16.338;2024-03-08T11:29:36;100054.03;;;9.75;59.69
26859;BME280;14429;48.346;16.338;2024-03-08T11:32:07;100053.16;;;9.74;59.62
26859;BME280;14429;48.346;16.338;2024-03-08T11:34:33;100049.25;;;9.66;59.92
26859;BME280;14429;48.346;16.338;2024-03-08T11:36:58;100046.09;;;9.89;58.75
26859;BME280;14429;48.346;16.338;2024-03-08T11:39:25;100045.34;;;10.00;58.08
26859;BME280;14429;48.346;16.338;2024-03-08T11:41:51;100035.09;;;10.49;57.35
26859;BME280;14429;48.346;16.338;2024-03-08T11:44:16;100040.22;;;10.52;57.11
26859;BME280;14429;48.346;16.338;2024-03-08T11:46:42;100021.44;;;10.81;56.44
26859;BME280;14429;48.346;16.338;2024-03-08T11:49:07;100025.34;;;11.02;55.58
26859;BME280;14429;48.346;16.338;2024-03-08T11:51:33;100020.50;;;10.95;54.88
26859;BME280;14429;48.346;16.338;2024-03-08T11:53:58;100021.03;;;10.87;55.50
26859;BME280;14429;48.346;16.338;2024-03-08T11:56:25;100020.69;;;11.05;55.24
26859;BME280;14429;48.346;16.338;2024-03-08T11:58:55;100015.91;;;10.17;55.81
26859;BME280;14429;48.346;16.338;2024-03-08T12:01:20;100016.78;;;10.57;55.98
26859;BME280;14429;48.346;16.338;2024-03-08T12:03:52;100014.16;;;10.16;57.35
26859;BME280;14429;48.346;16.338;2024-03-08T12:06:18;100009.31;;;10.36;56.80
26859;BME280;14429;48.346;16.338;2024-03-08T12:08:43;100004.22;;;10.73;54.92
26859;BME280;14429;48.346;16.338;2024-03-08T12:11:08;100002.09;;;11.30;54.65
26859;BME280;14429;48.346;16.338;2024-03-08T12:13:35;100002.16;;;11.16;54.71
26859;BME280;14429;48.346;16.338;2024-03-08T12:16:02;100001.41;;;11.14;54.64
26859;BME280;14429;48.346;16.338;2024-03-08T12:18:27;99997.81;;;11.02;53.64
26859;BME280;14429;48.346;16.338;2024-03-08T12:21:04;99997.59;;;11.57;53.62
26859;BME280;14429;48.346;16.338;2024-03-08T12:23:29;99997.31;;;10.83;54.17
26859;BME280;14429;48.346;16.338;2024-03-08T12:25:56;99988.97;;;10.75;55.01
26859;BME280;14429;48.346;16.338;2024-03-08T12:28:21;99992.31;;;10.65;55.67
26859;BME280;14429;48.346;16.338;2024-03-08T12:30:49;99986.66;;;10.83;55.27
26859;BME280;14429;48.346;16.338;2024-03-08T12:33:15;99992.25;;;10.52;54.81